Time;durP1;ratioP1;P1;durP2;ratioP2;P2;SDS_P1;SDS_P2;PMS_P1;PMS_P2;Temp;Humidity;BMP_temperature;BMP_pressure;BME280_temperature;BME280_humidity;BME280_pressure;Samples;Min_cycle;Max_cycle;Signal;HPM_P1;HPM_P2
2023/06/07 00:01:06;;;;;;;1.92;1.60;;;;;;;;;;5034362;28;20291;-83
2023/06/07 00:03:33;;;;;;;2.13;1.50;;;;;;;;;;5037662;28;20234;-84
2023/06/07 00:06:03;;;;;;;1.65;1.50;;;;;;;;;;5036765;28;20029;-81
2023/06/07 00:08:29;;;;;;;1.85;1.58;;;;;;;;;;5029473;28;20096;-83
2023/06/07 00:10:56;;;;;;;1.33;1.23;;;;;;;;;;5017702;28;20033;-81
2023/06/07 00:13:25;;;;;;;1.50;1.40;;;;;;;;;;5016394;28;20052;-83
2023/06/07 00:15:51;;;;;;;1.95;1.42;;;;;;;;;;5013011;28;20022;-81
2023/06/07 00:18:19;;;;;;;1.38;1.20;;;;;;;;;;5019169;28;20135;-82
2023/06/07 00:20:45;;;;;;;1.50;1.30;;;;;;;;;;5029057;28;20018;-82
2023/06/07 00:23:13;;;;;;;1.23;1.13;;;;;;;;;;5020179;28;20026;-81
2023/06/07 00:25:39;;;;;;;2.55;1.52;;;;;;;;;;5019301;28;20029;-82
2023/06/07 00:28:05;;;;;;;1.52;1.30;;;;;;;;;;5025038;28;20091;-81
2023/06/07 00:30:31;;;;;;;1.65;1.40;;;;;;;;;;5023846;28;20029;-81
2023/06/07 00:32:57;;;;;;;1.25;1.15;;;;;;;;;;5010945;28;20029;-81
2023/06/07 00:35:23;;;;;;;2.63;1.58;;;;;;;;;;5026273;28;20021;-82
2023/06/07 00:37:49;;;;;;;2.30;1.58;;;;;;;;;;5026191;28;20025;-82
2023/06/07 00:40:15;;;;;;;2.97;1.60;;;;;;;;;;5023182;28;20518;-81
2023/06/07 00:42:41;;;;;;;1.73;1.40;;;;;;;;;;5011810;28;20014;-81
2023/06/07 00:45:07;;;;;;;1.08;0.98;;;;;;;;;;5019673;28;20645;-82
2023/06/07 00:47:33;;;;;;;1.67;1.20;;;;;;;;;;5021274;28;20161;-81
2023/06/07 00:50:00;;;;;;;2.05;1.50;;;;;;;;;;5017300;28;20511;-82
2023/06/07 00:52:26;;;;;;;1.38;1.27;;;;;;;;;;5006863;28;20041;-81
2023/06/07 00:54:52;;;;;;;1.40;1.25;;;;;;;;;;5020311;28;20097;-81
2023/06/07 00:57:18;;;;;;;1.55;1.38;;;;;;;;;;5024185;28;20691;-81
2023/06/07 00:59:44;;;;;;;1.70;1.30;;;;;;;;;;5020337;28;20104;-81
2023/06/07 01:02:14;;;;;;;1.48;1.17;;;;;;;;;;5023418;28;20721;-81
2023/06/07 01:04:42;;;;;;;3.88;1.52;;;;;;;;;;5017719;28;20030;-81
2023/06/07 01:07:08;;;;;;;2.15;1.42;;;;;;;;;;5027343;28;20091;-82
2023/06/07 01:09:35;;;;;;;1.67;1.15;;;;;;;;;;5023604;28;20451;-82
2023/06/07 01:12:01;;;;;;;1.30;1.17;;;;;;;;;;5013559;28;20515;-82
2023/06/07 01:14:28;;;;;;;1.98;1.40;;;;;;;;;;5018213;28;20033;-82
2023/06/07 01:16:56;;;;;;;1.83;1.40;;;;;;;;;;5018396;28;20112;-82
2023/06/07 01:19:24;;;;;;;2.67;1.35;;;;;;;;;;5018946;28;20042;-82
2023/06/07 01:21:51;;;;;;;1.83;1.30;;;;;;;;;;5023195;28;20472;-82
2023/06/07 01:24:18;;;;;;;1.20;1.10;;;;;;;;;;5022619;28;20037;-81
2023/06/07 01:26:44;;;;;;;1.55;1.45;;;;;;;;;;5025429;28;20429;-82
2023/06/07 01:29:12;;;;;;;1.40;1.20;;;;;;;;;;5020990;28;20025;-82
2023/06/07 01:31:38;;;;;;;1.55;1.33;;;;;;;;;;5021530;28;20030;-82
2023/06/07 01:34:04;;;;;;;1.58;1.20;;;;;;;;;;5023567;28;20569;-82
2023/06/07 01:36:34;;;;;;;1.30;1.20;;;;;;;;;;5022708;28;20025;-83
2023/06/07 01:39:01;;;;;;;1.92;1.23;;;;;;;;;;5015806;28;20030;-82
2023/06/07 01:41:28;;;;;;;1.05;0.98;;;;;;;;;;5022366;28;20470;-82
2023/06/07 01:43:55;;;;;;;1.25;0.90;;;;;;;;;;5018004;28;20018;-83
2023/06/07 01:46:21;;;;;;;1.85;1.30;;;;;;;;;;5020587;28;20029;-82
2023/06/07 01:48:47;;;;;;;1.10;1.00;;;;;;;;;;5023209;28;20025;-82
2023/06/07 01:51:13;;;;;;;1.67;1.20;;;;;;;;;;5019244;28;20160;-82
2023/06/07 01:53:39;;;;;;;1.58;1.30;;;;;;;;;;5019111;28;20033;-82
2023/06/07 01:56:11;;;;;;;2.83;1.40;;;;;;;;;;5020378;28;20304;-82
2023/06/07 01:58:46;;;;;;;1.85;1.58;;;;;;;;;;5013786;28;20060;-82
2023/06/07 02:01:31;;;;;;;1.38;1.08;;;;;;;;;;5025284;28;20025;-81
2023/06/07 02:03:59;;;;;;;1.73;1.27;;;;;;;;;;5020886;28;20060;-82
2023/06/07 02:06:30;;;;;;;2.15;1.20;;;;;;;;;;5024482;28;20244;-82
2023/06/07 02:08:57;;;;;;;2.78;1.27;;;;;;;;;;5019675;28;20542;-82
2023/06/07 02:11:25;;;;;;;1.45;1.10;;;;;;;;;;5021021;28;20514;-82
2023/06/07 02:13:51;;;;;;;2.45;1.00;;;;;;;;;;5024062;28;20022;-81
2023/06/07 02:16:17;;;;;;;1.58;1.13;;;;;;;;;;5017582;28;20392;-81
2023/06/07 02:18:44;;;;;;;1.55;1.13;;;;;;;;;;5023604;28;20041;-82
2023/06/07 02:21:10;;;;;;;1.58;1.00;;;;;;;;;;5018789;28;20410;-81
2023/06/07 02:23:37;;;;;;;1.77;1.10;;;;;;;;;;5024658;28;20083;-81
2023/06/07 02:26:03;;;;;;;1.13;1.10;;;;;;;;;;5017266;28;20026;-81
2023/06/07 02:28:30;;;;;;;1.50;1.10;;;;;;;;;;5019457;28;20030;-82
2023/06/07 02:30:57;;;;;;;1.30;0.98;;;;;;;;;;5023171;28;20060;-82
2023/06/07 02:33:26;;;;;;;1.95;1.45;;;;;;;;;;5024289;28;20552;-82
2023/06/07 02:35:52;;;;;;;1.52;0.98;;;;;;;;;;5025120;28;20025;-81
2023/06/07 02:38:18;;;;;;;1.27;1.17;;;;;;;;;;5021498;28;20034;-82
2023/06/07 02:40:44;;;;;;;4.32;1.35;;;;;;;;;;5021996;28;20045;-82
2023/06/07 02:43:10;;;;;;;1.45;1.10;;;;;;;;;;5030098;28;20022;-82
2023/06/07 02:45:36;;;;;;;1.55;1.33;;;;;;;;;;5028229;28;20079;-81
2023/06/07 02:48:02;;;;;;;1.38;1.20;;;;;;;;;;5021209;28;20029;-82
2023/06/07 02:50:28;;;;;;;2.00;1.20;;;;;;;;;;5022179;28;20040;-81
2023/06/07 02:52:54;;;;;;;2.33;1.35;;;;;;;;;;5027560;28;20030;-81
2023/06/07 02:55:20;;;;;;;1.83;1.17;;;;;;;;;;5030410;28;20507;-81
2023/06/07 02:57:46;;;;;;;2.10;1.27;;;;;;;;;;5026618;28;21342;-81
2023/06/07 03:00:13;;;;;;;1.20;1.10;;;;;;;;;;5025330;28;20480;-81
2023/06/07 03:02:40;;;;;;;1.00;0.95;;;;;;;;;;5020440;28;20030;-82
2023/06/07 03:05:06;;;;;;;2.67;1.20;;;;;;;;;;5027990;28;20030;-81
2023/06/07 03:07:34;;;;;;;2.22;1.20;;;;;;;;;;5030917;28;20025;-82
2023/06/07 03:10:00;;;;;;;1.13;0.77;;;;;;;;;;5027431;28;20033;-83
2023/06/07 03:12:26;;;;;;;1.25;0.93;;;;;;;;;;5022159;28;20029;-83
2023/06/07 03:14:52;;;;;;;0.95;0.85;;;;;;;;;;5025797;28;20033;-83
2023/06/07 03:17:18;;;;;;;1.00;0.98;;;;;;;;;;5020902;28;20025;-82
2023/06/07 03:19:44;;;;;;;1.50;1.10;;;;;;;;;;5021801;28;20512;-83
2023/06/07 03:22:10;;;;;;;0.90;0.90;;;;;;;;;;5028073;28;20148;-83
2023/06/07 03:24:36;;;;;;;1.30;1.00;;;;;;;;;;5026307;28;20052;-83
2023/06/07 03:27:03;;;;;;;1.67;1.13;;;;;;;;;;5020541;28;20034;-83
2023/06/07 03:29:30;;;;;;;2.45;1.05;;;;;;;;;;5026261;28;20037;-82
2023/06/07 03:31:56;;;;;;;2.28;1.15;;;;;;;;;;5016965;28;20037;-83
2023/06/07 03:34:22;;;;;;;1.90;1.40;;;;;;;;;;5025202;28;20114;-83
2023/06/07 03:36:48;;;;;;;1.30;1.00;;;;;;;;;;5025998;28;20696;-83
2023/06/07 03:39:14;;;;;;;1.25;1.00;;;;;;;;;;5026339;28;20124;-84
2023/06/07 03:41:40;;;;;;;1.35;1.17;;;;;;;;;;5021546;28;20578;-82
2023/06/07 03:44:06;;;;;;;1.13;1.00;;;;;;;;;;5025571;28;20036;-83
2023/06/07 03:46:32;;;;;;;0.77;0.75;;;;;;;;;;5023742;28;20033;-83
2023/06/07 03:48:59;;;;;;;3.20;1.50;;;;;;;;;;5023152;28;20022;-82
2023/06/07 03:51:25;;;;;;;1.15;1.00;;;;;;;;;;5004728;28;20503;-83
2023/06/07 03:53:51;;;;;;;2.10;1.30;;;;;;;;;;5026422;28;20029;-82
2023/06/07 03:56:17;;;;;;;1.20;1.10;;;;;;;;;;5022997;28;20391;-83
2023/06/07 03:58:45;;;;;;;1.80;1.17;;;;;;;;;;5020740;28;20026;-83
2023/06/07 04:01:11;;;;;;;1.35;1.02;;;;;;;;;;5025204;28;20025;-83
2023/06/07 04:03:37;;;;;;;2.33;1.20;;;;;;;;;;5021395;28;20050;-83
2023/06/07 04:06:03;;;;;;;1.00;0.90;;;;;;;;;;5025656;28;20519;-81
2023/06/07 04:08:29;;;;;;;1.85;1.25;;;;;;;;;;5012534;28;20033;-83
2023/06/07 04:10:55;;;;;;;2.03;1.00;;;;;;;;;;5026587;28;20858;-84
2023/06/07 04:13:21;;;;;;;2.28;1.10;;;;;;;;;;5023552;28;20084;-83
2023/06/07 04:15:47;;;;;;;1.20;1.00;;;;;;;;;;5021715;28;20030;-83
2023/06/07 04:18:13;;;;;;;0.77;0.77;;;;;;;;;;5019126;28;20048;-83
2023/06/07 04:20:41;;;;;;;1.20;1.10;;;;;;;;;;5012489;28;20029;-83
2023/06/07 04:23:07;;;;;;;1.20;1.10;;;;;;;;;;5021548;28;20481;-81
2023/06/07 04:25:33;;;;;;;2.22;1.10;;;;;;;;;;5016940;28;20037;-82
2023/06/07 04:28:00;;;;;;;1.52;1.10;;;;;;;;;;5008891;28;20404;-83
2023/06/07 04:30:34;;;;;;;3.17;0.90;;;;;;;;;;5022953;28;20026;-82
2023/06/07 04:33:01;;;;;;;1.13;0.70;;;;;;;;;;5025417;28;20025;-83
2023/06/07 04:35:31;;;;;;;1.15;0.90;;;;;;;;;;5020478;28;20370;-83
2023/06/07 04:37:57;;;;;;;1.13;1.02;;;;;;;;;;5026717;28;20033;-84
2023/06/07 04:40:23;;;;;;;1.10;1.00;;;;;;;;;;5021306;28;20030;-83
2023/06/07 04:43:05;;;;;;;1.00;0.90;;;;;;;;;;5023710;28;20121;-83
2023/06/07 04:45:32;;;;;;;0.77;0.77;;;;;;;;;;5019293;28;20014;-83
2023/06/07 04:48:01;;;;;;;1.73;1.17;;;;;;;;;;5027320;28;20026;-84
2023/06/07 04:50:30;;;;;;;1.77;1.13;;;;;;;;;;5018694;28;20030;-83
2023/06/07 04:53:00;;;;;;;1.75;1.40;;;;;;;;;;5029013;28;20037;-83
2023/06/07 04:55:28;;;;;;;1.30;1.02;;;;;;;;;;5022413;28;20025;-83
2023/06/07 04:57:54;;;;;;;2.30;1.38;;;;;;;;;;5023108;28;20040;-83
2023/06/07 05:00:20;;;;;;;1.52;1.15;;;;;;;;;;5021998;28;20036;-83
2023/06/07 05:02:46;;;;;;;1.30;1.20;;;;;;;;;;5020948;28;20048;-83
2023/06/07 05:05:13;;;;;;;1.13;1.02;;;;;;;;;;5023490;28;20465;-83
2023/06/07 05:07:41;;;;;;;1.15;0.93;;;;;;;;;;5027409;28;20044;-76
2023/06/07 05:10:07;;;;;;;1.40;1.20;;;;;;;;;;5023946;28;20116;-83
2023/06/07 05:12:33;;;;;;;1.60;1.15;;;;;;;;;;5024667;28;20053;-83
2023/06/07 05:14:59;;;;;;;1.77;1.25;;;;;;;;;;5011841;28;20060;-83
2023/06/07 05:17:28;;;;;;;2.47;1.08;;;;;;;;;;5022466;28;20029;-76
2023/06/07 05:19:54;;;;;;;1.90;1.23;;;;;;;;;;5019751;28;20496;-78
2023/06/07 05:22:21;;;;;;;1.80;1.25;;;;;;;;;;5028830;28;20032;-83
2023/06/07 05:24:47;;;;;;;1.27;1.00;;;;;;;;;;5024271;28;20032;-82
2023/06/07 05:27:14;;;;;;;2.35;1.02;;;;;;;;;;5024790;28;20567;-79
2023/06/07 05:29:40;;;;;;;1.20;1.10;;;;;;;;;;5020055;28;20496;-79
2023/06/07 05:32:09;;;;;;;2.42;1.10;;;;;;;;;;5020963;28;20045;-79
2023/06/07 05:34:35;;;;;;;1.15;1.05;;;;;;;;;;5024555;28;20029;-79
2023/06/07 05:37:04;;;;;;;1.42;1.13;;;;;;;;;;5022972;28;20365;-80
2023/06/07 05:39:30;;;;;;;1.90;1.02;;;;;;;;;;5008937;28;20479;-79
2023/06/07 05:41:56;;;;;;;1.10;1.00;;;;;;;;;;5023203;28;20087;-79
2023/06/07 05:44:25;;;;;;;1.45;1.10;;;;;;;;;;5024565;28;20018;-80
2023/06/07 05:46:57;;;;;;;1.95;1.40;;;;;;;;;;5029698;28;20032;-80
2023/06/07 05:49:23;;;;;;;1.52;1.17;;;;;;;;;;5018900;28;20034;-80
2023/06/07 05:51:50;;;;;;;2.58;0.93;;;;;;;;;;5023734;28;20123;-80
2023/06/07 05:54:16;;;;;;;1.13;0.90;;;;;;;;;;5022086;28;20116;-80
2023/06/07 05:56:42;;;;;;;1.00;0.98;;;;;;;;;;5029476;28;20032;-86
2023/06/07 05:59:08;;;;;;;1.83;1.17;;;;;;;;;;5017796;28;20030;-85
2023/06/07 06:01:34;;;;;;;1.88;1.13;;;;;;;;;;5019352;28;20022;-86
2023/06/07 06:04:01;;;;;;;2.90;1.30;;;;;;;;;;5015284;28;20018;-85
2023/06/07 06:06:27;;;;;;;0.73;0.73;;;;;;;;;;5016299;28;20069;-86
2023/06/07 06:08:53;;;;;;;1.52;0.90;;;;;;;;;;5025797;28;20017;-87
2023/06/07 06:11:22;;;;;;;0.73;0.73;;;;;;;;;;5022689;28;20350;-87
2023/06/07 06:16:34;;;;;;;1.20;1.10;;;;;;;;;;5027343;28;20374;-86
2023/06/07 06:19:25;;;;;;;2.03;0.98;;;;;;;;;;5026056;28;20401;-88
2023/06/07 06:21:55;;;;;;;1.35;1.00;;;;;;;;;;4984549;28;20034;-88
2023/06/07 06:24:21;;;;;;;1.52;1.20;;;;;;;;;;5015253;28;20123;-88
2023/06/07 06:26:47;;;;;;;2.03;1.23;;;;;;;;;;5010489;28;20702;-86
2023/06/07 06:29:13;;;;;;;4.97;1.65;;;;;;;;;;5018471;28;20033;-87
2023/06/07 06:31:40;;;;;;;1.52;1.02;;;;;;;;;;5023958;28;20544;-79
2023/06/07 06:34:15;;;;;;;1.45;1.30;;;;;;;;;;5021545;28;20091;-83
2023/06/07 06:36:41;;;;;;;0.80;0.80;;;;;;;;;;5016285;28;20029;-81
2023/06/07 06:39:08;;;;;;;2.20;0.90;;;;;;;;;;5022618;28;20392;-81
2023/06/07 06:41:35;;;;;;;2.10;1.02;;;;;;;;;;5013529;28;20436;-81
2023/06/07 06:44:01;;;;;;;3.35;1.13;;;;;;;;;;5025583;28;20022;-80
2023/06/07 06:46:27;;;;;;;1.00;0.90;;;;;;;;;;5024661;28;20029;-81
2023/06/07 06:48:53;;;;;;;1.33;0.98;;;;;;;;;;5027107;28;20476;-79
2023/06/07 06:51:19;;;;;;;1.10;1.00;;;;;;;;;;5023197;28;20080;-80
2023/06/07 06:53:48;;;;;;;1.38;1.10;;;;;;;;;;5024179;28;20034;-80
2023/06/07 06:56:14;;;;;;;1.60;1.20;;;;;;;;;;5024838;28;20048;-80
2023/06/07 06:58:40;;;;;;;1.77;1.40;;;;;;;;;;5021627;28;20030;-80
2023/06/07 07:01:07;;;;;;;1.02;0.90;;;;;;;;;;5013765;28;20049;-86
2023/06/07 07:03:33;;;;;;;1.75;1.08;;;;;;;;;;5022654;28;20027;-81
2023/06/07 07:05:59;;;;;;;1.13;1.00;;;;;;;;;;5019419;28;20067;-83
2023/06/07 07:08:25;;;;;;;3.17;1.20;;;;;;;;;;5014098;28;20057;-89
2023/06/07 07:10:51;;;;;;;1.45;1.02;;;;;;;;;;5016239;28;20056;-80
2023/06/07 07:13:17;;;;;;;1.10;1.00;;;;;;;;;;5026389;28;20507;-83
2023/06/07 07:15:43;;;;;;;1.38;1.10;;;;;;;;;;5021301;28;20420;-76
2023/06/07 07:18:10;;;;;;;1.65;1.00;;;;;;;;;;5027401;28;20500;-76
2023/06/07 07:20:36;;;;;;;1.08;0.98;;;;;;;;;;5025140;28;20044;-77
2023/06/07 07:23:03;;;;;;;0.70;0.70;;;;;;;;;;5017503;28;20492;-77
2023/06/07 07:25:29;;;;;;;1.17;0.90;;;;;;;;;;5025358;28;20472;-78
2023/06/07 07:27:55;;;;;;;0.98;0.80;;;;;;;;;;5022451;28;20061;-78
2023/06/07 07:30:21;;;;;;;1.00;0.90;;;;;;;;;;5024717;28;20565;-79
2023/06/07 07:32:47;;;;;;;1.98;1.13;;;;;;;;;;5009679;28;20161;-78
2023/06/07 07:35:13;;;;;;;1.33;1.00;;;;;;;;;;5012962;28;20121;-79
2023/06/07 07:37:39;;;;;;;0.77;0.77;;;;;;;;;;5017254;28;20564;-78
2023/06/07 07:40:08;;;;;;;3.30;1.20;;;;;;;;;;5027966;28;20546;-78
2023/06/07 07:42:34;;;;;;;1.75;1.13;;;;;;;;;;5020633;28;20025;-77
2023/06/07 07:45:00;;;;;;;2.78;1.25;;;;;;;;;;5031448;28;20017;-78
2023/06/07 07:47:26;;;;;;;1.60;1.00;;;;;;;;;;5025372;28;20082;-77
2023/06/07 07:49:52;;;;;;;1.20;0.90;;;;;;;;;;5021098;28;20560;-78
2023/06/07 07:52:18;;;;;;;1.70;1.13;;;;;;;;;;5021724;28;20445;-78
2023/06/07 07:54:44;;;;;;;1.08;0.90;;;;;;;;;;5028964;28;20116;-78
2023/06/07 07:57:10;;;;;;;0.82;0.80;;;;;;;;;;5022561;28;20038;-78
2023/06/07 07:59:36;;;;;;;1.00;0.85;;;;;;;;;;4993503;28;20049;-77
2023/06/07 08:02:03;;;;;;;1.55;1.13;;;;;;;;;;5018033;28;20053;-78
2023/06/07 08:04:32;;;;;;;1.15;1.02;;;;;;;;;;5028846;28;20163;-79
2023/06/07 08:06:58;;;;;;;1.17;0.82;;;;;;;;;;5020560;28;20052;-79
2023/06/07 08:09:24;;;;;;;1.10;0.70;;;;;;;;;;5011279;28;20517;-78
2023/06/07 08:11:50;;;;;;;1.33;1.05;;;;;;;;;;5011016;28;20443;-79
2023/06/07 08:14:16;;;;;;;1.17;0.88;;;;;;;;;;5011078;28;20032;-79
2023/06/07 08:16:42;;;;;;;1.77;0.98;;;;;;;;;;5018510;28;20146;-80
2023/06/07 08:19:08;;;;;;;1.00;0.85;;;;;;;;;;5031211;28;20049;-79
2023/06/07 08:21:35;;;;;;;1.73;1.42;;;;;;;;;;5020085;28;20173;-78
2023/06/07 08:24:01;;;;;;;1.38;1.00;;;;;;;;;;5010747;28;20053;-78
2023/06/07 08:26:27;;;;;;;1.52;0.90;;;;;;;;;;5013459;28;20072;-78
2023/06/07 08:28:53;;;;;;;3.58;0.80;;;;;;;;;;5022632;28;20029;-79
2023/06/07 08:31:19;;;;;;;1.75;1.02;;;;;;;;;;5030403;28;20028;-78
2023/06/07 08:33:45;;;;;;;1.73;1.10;;;;;;;;;;5030356;28;20459;-79
2023/06/07 08:36:11;;;;;;;0.90;0.90;;;;;;;;;;5030480;28;20022;-78
2023/06/07 08:38:43;;;;;;;0.90;0.75;;;;;;;;;;5025040;28;20037;-78
2023/06/07 08:41:10;;;;;;;0.68;0.68;;;;;;;;;;5030383;28;20049;-78
2023/06/07 08:43:37;;;;;;;1.55;0.90;;;;;;;;;;5030131;28;20369;-77
2023/06/07 08:46:04;;;;;;;1.13;1.00;;;;;;;;;;5030670;28;20017;-77
2023/06/07 08:48:32;;;;;;;1.42;0.90;;;;;;;;;;5023850;28;20029;-77
2023/06/07 08:51:08;;;;;;;0.80;0.80;;;;;;;;;;5022060;28;20076;-78
2023/06/07 08:53:54;;;;;;;1.42;0.90;;;;;;;;;;5018685;28;20034;-78
2023/06/07 08:56:21;;;;;;;1.02;0.90;;;;;;;;;;5026061;28;20033;-78
2023/06/07 08:58:48;;;;;;;0.75;0.75;;;;;;;;;;5019572;28;20026;-78
2023/06/07 09:01:15;;;;;;;3.22;0.70;;;;;;;;;;5027153;28;20034;-78
2023/06/07 09:03:40;;;;;;;0.82;0.77;;;;;;;;;;5009951;28;20052;-78
2023/06/07 09:06:07;;;;;;;0.77;0.70;;;;;;;;;;5010132;28;20034;-77
2023/06/07 09:08:33;;;;;;;1.42;0.80;;;;;;;;;;5028185;28;20072;-78
2023/06/07 09:10:59;;;;;;;1.38;1.08;;;;;;;;;;5028224;28;20033;-79
2023/06/07 09:13:25;;;;;;;1.05;0.80;;;;;;;;;;5012306;28;20037;-79
2023/06/07 09:15:57;;;;;;;1.58;0.85;;;;;;;;;;5015131;28;20080;-79
2023/06/07 09:18:23;;;;;;;1.60;0.80;;;;;;;;;;5024722;28;20041;-80
2023/06/07 09:20:49;;;;;;;2.72;0.85;;;;;;;;;;5000605;28;20048;-79
2023/06/07 09:23:16;;;;;;;1.70;1.20;;;;;;;;;;5019733;28;20026;-79
2023/06/07 09:25:45;;;;;;;1.70;1.13;;;;;;;;;;5028374;28;20017;-80
2023/06/07 09:28:15;;;;;;;1.42;1.00;;;;;;;;;;5029512;28;20026;-79
2023/06/07 09:30:56;;;;;;;0.95;0.90;;;;;;;;;;5012711;28;20030;-79
2023/06/07 09:33:29;;;;;;;0.90;0.90;;;;;;;;;;5020977;28;20097;-80
2023/06/07 09:36:08;;;;;;;1.75;1.20;;;;;;;;;;5029581;28;20079;-79
2023/06/07 09:38:34;;;;;;;1.05;0.95;;;;;;;;;;5029091;28;20029;-79
2023/06/07 09:41:00;;;;;;;0.70;0.70;;;;;;;;;;5026097;28;20030;-79
2023/06/07 09:43:26;;;;;;;1.92;1.10;;;;;;;;;;5016723;28;20031;-79
2023/06/07 09:45:56;;;;;;;1.98;1.10;;;;;;;;;;5014708;28;20069;-80
2023/06/07 09:48:22;;;;;;;1.25;0.93;;;;;;;;;;5028960;28;20483;-79
2023/06/07 09:51:03;;;;;;;1.15;0.88;;;;;;;;;;5028385;28;20473;-79
2023/06/07 09:53:29;;;;;;;1.73;0.93;;;;;;;;;;5014645;28;20048;-78
2023/06/07 09:55:55;;;;;;;0.90;0.85;;;;;;;;;;5010302;28;20051;-79
2023/06/07 09:58:22;;;;;;;0.98;0.88;;;;;;;;;;5013383;28;20030;-80
2023/06/07 10:00:49;;;;;;;1.00;0.90;;;;;;;;;;5009159;28;20029;-79
2023/06/07 10:03:16;;;;;;;0.88;0.80;;;;;;;;;;5018058;28;20029;-79
2023/06/07 10:05:42;;;;;;;2.20;1.23;;;;;;;;;;5023525;28;20465;-79
2023/06/07 10:08:09;;;;;;;1.48;0.95;;;;;;;;;;5015968;28;20037;-78
2023/06/07 10:10:36;;;;;;;1.27;0.82;;;;;;;;;;5009542;28;20099;-78
2023/06/07 10:13:05;;;;;;;1.73;1.20;;;;;;;;;;5017911;28;20037;-79
2023/06/07 10:15:32;;;;;;;0.93;0.82;;;;;;;;;;5028894;28;20057;-79
2023/06/07 10:18:00;;;;;;;1.15;1.05;;;;;;;;;;5022653;28;20521;-79
2023/06/07 10:20:37;;;;;;;0.80;0.80;;;;;;;;;;5019604;28;20034;-79
2023/06/07 10:23:04;;;;;;;1.05;0.95;;;;;;;;;;5018307;28;20068;-80
2023/06/07 10:25:46;;;;;;;1.60;0.75;;;;;;;;;;5013868;28;20060;-79
2023/06/07 10:28:32;;;;;;;1.20;0.95;;;;;;;;;;5014567;28;20034;-79
2023/06/07 10:31:05;;;;;;;3.00;1.10;;;;;;;;;;5028337;28;20039;-79
2023/06/07 10:33:32;;;;;;;1.88;1.10;;;;;;;;;;5024266;28;20028;-79
2023/06/07 10:35:58;;;;;;;1.30;0.95;;;;;;;;;;5018420;28;20167;-79
2023/06/07 10:38:24;;;;;;;1.73;0.90;;;;;;;;;;5018715;28;20057;-79
2023/06/07 10:40:52;;;;;;;1.17;0.98;;;;;;;;;;5019963;28;20477;-79
2023/06/07 10:43:19;;;;;;;2.25;1.10;;;;;;;;;;5028136;28;20083;-80
2023/06/07 10:45:45;;;;;;;1.90;1.02;;;;;;;;;;5027859;28;20022;-79
2023/06/07 10:48:30;;;;;;;1.00;0.90;;;;;;;;;;5019147;28;20459;-79
2023/06/07 10:50:56;;;;;;;1.17;1.00;;;;;;;;;;5026407;28;20032;-78
2023/06/07 10:53:22;;;;;;;2.40;1.65;;;;;;;;;;5014774;28;20021;-79
2023/06/07 10:55:48;;;;;;;1.58;1.00;;;;;;;;;;5028330;28;20021;-78
2023/06/07 10:58:32;;;;;;;0.95;0.85;;;;;;;;;;5023449;28;20037;-78
2023/06/07 11:01:18;;;;;;;0.70;0.70;;;;;;;;;;5008579;28;20530;-79
2023/06/07 11:03:44;;;;;;;1.40;0.90;;;;;;;;;;5019115;28;20046;-78
2023/06/07 11:06:10;;;;;;;1.00;0.88;;;;;;;;;;5029829;28;20045;-78
2023/06/07 11:08:37;;;;;;;1.80;0.98;;;;;;;;;;5019718;28;20493;-78
2023/06/07 11:11:03;;;;;;;1.73;1.20;;;;;;;;;;5012736;28;20041;-78
2023/06/07 11:13:32;;;;;;;1.13;0.90;;;;;;;;;;5011649;28;20029;-78
2023/06/07 11:16:18;;;;;;;1.30;1.00;;;;;;;;;;5012005;28;20515;-78
2023/06/07 11:18:56;;;;;;;1.40;0.77;;;;;;;;;;5010879;28;20119;-78
2023/06/07 11:21:26;;;;;;;1.50;1.10;;;;;;;;;;5023080;28;20021;-79
2023/06/07 11:24:11;;;;;;;1.50;0.90;;;;;;;;;;5018741;28;20080;-78
2023/06/07 11:26:37;;;;;;;1.00;0.80;;;;;;;;;;5013044;28;20305;-78
2023/06/07 11:29:05;;;;;;;0.75;0.75;;;;;;;;;;5023437;28;20033;-78
2023/06/07 11:31:31;;;;;;;2.00;1.20;;;;;;;;;;5023431;28;20480;-79
2023/06/07 11:33:57;;;;;;;1.63;0.88;;;;;;;;;;5021886;28;20105;-78
2023/06/07 11:36:23;;;;;;;1.45;0.88;;;;;;;;;;5019380;28;20038;-78
2023/06/07 11:38:50;;;;;;;1.42;0.98;;;;;;;;;;5024434;28;20163;-79
2023/06/07 11:41:23;;;;;;;0.85;0.85;;;;;;;;;;5021238;28;20033;-79
2023/06/07 11:43:49;;;;;;;0.93;0.93;;;;;;;;;;5011911;28;20021;-79
2023/06/07 11:46:17;;;;;;;1.73;1.20;;;;;;;;;;5016956;28;20556;-78
2023/06/07 11:48:43;;;;;;;1.45;0.90;;;;;;;;;;5013762;28;20071;-78
2023/06/07 11:51:09;;;;;;;1.05;0.98;;;;;;;;;;5027080;28;20113;-79
2023/06/07 11:53:35;;;;;;;2.00;1.38;;;;;;;;;;5013946;28;20029;-78
2023/06/07 11:56:02;;;;;;;1.20;0.90;;;;;;;;;;5019957;28;20389;-79
2023/06/07 11:58:28;;;;;;;1.20;0.98;;;;;;;;;;5030267;28;20491;-78
2023/06/07 12:00:56;;;;;;;1.83;1.15;;;;;;;;;;5016825;28;20030;-79
2023/06/07 12:03:22;;;;;;;1.05;0.90;;;;;;;;;;5020414;28;20029;-79
2023/06/07 12:05:48;;;;;;;1.70;0.98;;;;;;;;;;5018195;28;20037;-78
2023/06/07 12:08:16;;;;;;;1.38;1.13;;;;;;;;;;5020100;28;20735;-78
2023/06/07 12:10:43;;;;;;;1.48;1.10;;;;;;;;;;5021201;28;20021;-78
2023/06/07 12:13:13;;;;;;;1.15;0.90;;;;;;;;;;5020652;28;20034;-79
2023/06/07 12:15:55;;;;;;;1.15;1.05;;;;;;;;;;5014998;28;20113;-79
2023/06/07 12:18:25;;;;;;;1.20;1.02;;;;;;;;;;5014583;28;20048;-77
2023/06/07 12:21:01;;;;;;;0.90;0.90;;;;;;;;;;5008903;28;20049;-81
2023/06/07 12:23:27;;;;;;;1.30;1.20;;;;;;;;;;5016478;28;20048;-81
2023/06/07 12:26:05;;;;;;;1.02;0.98;;;;;;;;;;4997034;28;20541;-79
2023/06/07 12:28:31;;;;;;;0.90;0.90;;;;;;;;;;5019196;28;20393;-80
2023/06/07 12:30:57;;;;;;;0.90;0.90;;;;;;;;;;5015047;28;20025;-80
2023/06/07 12:33:26;;;;;;;1.17;1.08;;;;;;;;;;5012691;28;20025;-81
2023/06/07 12:35:52;;;;;;;4.15;0.98;;;;;;;;;;5022855;28;20668;-80
2023/06/07 12:38:20;;;;;;;1.75;1.10;;;;;;;;;;5012337;28;20057;-80
2023/06/07 12:40:46;;;;;;;1.17;0.77;;;;;;;;;;5014961;28;20148;-79
2023/06/07 12:43:12;;;;;;;1.23;1.13;;;;;;;;;;5017036;28;20022;-80
2023/06/07 12:45:38;;;;;;;1.33;1.20;;;;;;;;;;5007339;28;20053;-80
2023/06/07 12:48:04;;;;;;;0.90;0.90;;;;;;;;;;5021531;28;20555;-80
2023/06/07 12:50:30;;;;;;;1.63;1.27;;;;;;;;;;5017866;28;20040;-80
2023/06/07 12:52:56;;;;;;;1.15;1.05;;;;;;;;;;5017438;28;20159;-80
2023/06/07 12:55:22;;;;;;;1.10;1.00;;;;;;;;;;5014591;28;20830;-80
2023/06/07 12:57:48;;;;;;;3.33;1.40;;;;;;;;;;5013752;28;20025;-80
2023/06/07 13:00:15;;;;;;;1.00;1.00;;;;;;;;;;5016221;28;20049;-81
2023/06/07 13:02:44;;;;;;;1.42;0.95;;;;;;;;;;5018491;28;20029;-81
2023/06/07 13:05:14;;;;;;;1.95;1.23;;;;;;;;;;5021719;28;20602;-80
2023/06/07 13:07:40;;;;;;;1.27;0.87;;;;;;;;;;5010340;28;20049;-80
2023/06/07 13:10:07;;;;;;;1.58;1.10;;;;;;;;;;5017234;28;20279;-76
2023/06/07 13:12:33;;;;;;;0.93;0.93;;;;;;;;;;5022224;28;20088;-86
2023/06/07 13:14:59;;;;;;;1.17;1.02;;;;;;;;;;5014514;28;20370;-80
2023/06/07 13:17:25;;;;;;;1.20;1.02;;;;;;;;;;5026321;28;20088;-80
2023/06/07 13:19:52;;;;;;;1.33;1.10;;;;;;;;;;5012051;28;20081;-80
2023/06/07 13:22:18;;;;;;;1.63;1.10;;;;;;;;;;5019123;28;20040;-79
2023/06/07 13:24:44;;;;;;;1.35;1.25;;;;;;;;;;5017045;28;20055;-77
2023/06/07 13:27:12;;;;;;;1.45;1.10;;;;;;;;;;5018849;28;20453;-80
2023/06/07 13:29:39;;;;;;;1.35;1.25;;;;;;;;;;5022860;28;20488;-75
2023/06/07 13:32:05;;;;;;;2.35;1.58;;;;;;;;;;5025740;28;20804;-77
2023/06/07 13:34:31;;;;;;;1.25;1.15;;;;;;;;;;5024033;28;20116;-78
2023/06/07 13:36:58;;;;;;;1.50;1.13;;;;;;;;;;5018501;28;20496;-78
2023/06/07 13:39:25;;;;;;;2.30;1.30;;;;;;;;;;5025538;28;20484;-79
2023/06/07 13:41:53;;;;;;;1.25;1.15;;;;;;;;;;5024724;28;20722;-80
2023/06/07 13:44:19;;;;;;;1.75;1.15;;;;;;;;;;5013818;28;20026;-80
2023/06/07 13:46:45;;;;;;;1.42;1.08;;;;;;;;;;5015657;28;20490;-80
2023/06/07 13:49:18;;;;;;;1.58;1.40;;;;;;;;;;5018236;28;20064;-82
2023/06/07 13:51:50;;;;;;;2.83;1.45;;;;;;;;;;5025555;28;20029;-81
2023/06/07 13:54:16;;;;;;;2.60;1.50;;;;;;;;;;5000580;28;20042;-81
2023/06/07 13:56:42;;;;;;;1.30;1.20;;;;;;;;;;5022571;28;20030;-79
2023/06/07 13:59:08;;;;;;;1.88;1.30;;;;;;;;;;5019064;28;20029;-81
2023/06/07 14:01:37;;;;;;;1.10;1.00;;;;;;;;;;5018808;28;20461;-83
2023/06/07 14:04:09;;;;;;;1.67;1.42;;;;;;;;;;5020528;28;20060;-82
2023/06/07 14:06:37;;;;;;;1.50;1.40;;;;;;;;;;5011540;28;20030;-83
2023/06/07 14:09:03;;;;;;;1.77;1.35;;;;;;;;;;5000758;28;20124;-81
2023/06/07 14:11:34;;;;;;;2.13;1.60;;;;;;;;;;5022756;28;20080;-80
2023/06/07 14:14:00;;;;;;;2.67;1.55;;;;;;;;;;5024051;28;20144;-81
2023/06/07 14:16:26;;;;;;;1.92;1.60;;;;;;;;;;5019974;28;20042;-81
2023/06/07 14:18:52;;;;;;;1.75;1.48;;;;;;;;;;5024393;28;20049;-80
2023/06/07 14:21:18;;;;;;;2.28;1.40;;;;;;;;;;5018433;28;20030;-79
2023/06/07 14:24:04;;;;;;;2.25;1.42;;;;;;;;;;5017246;28;20030;-84
2023/06/07 14:27:04;;;;;;;2.13;1.30;;;;;;;;;;5013235;28;20080;-82
2023/06/07 14:29:30;;;;;;;2.75;1.63;;;;;;;;;;5022218;28;20033;-81
2023/06/07 14:31:59;;;;;;;3.97;1.30;;;;;;;;;;5021749;28;20026;-81
2023/06/07 14:34:25;;;;;;;1.90;1.40;;;;;;;;;;5018592;28;20192;-81
2023/06/07 14:36:51;;;;;;;2.00;1.30;;;;;;;;;;5025871;28;20044;-80
2023/06/07 14:39:17;;;;;;;2.72;1.38;;;;;;;;;;5023670;28;20064;-79
2023/06/07 14:41:44;;;;;;;1.85;1.60;;;;;;;;;;5024224;28;20168;-83
2023/06/07 14:44:10;;;;;;;1.95;1.52;;;;;;;;;;5016515;28;20034;-81
2023/06/07 14:46:36;;;;;;;1.95;1.42;;;;;;;;;;5024902;28;20072;-78
2023/06/07 14:49:02;;;;;;;2.22;1.60;;;;;;;;;;5023708;28;20041;-76